createdAt,value
2017-12-26T00:01:48.026Z,99493.16
2017-12-26T00:04:15.512Z,99487.35
2017-12-26T00:06:42.968Z,99487.12
2017-12-26T00:09:10.422Z,99477.43
2017-12-26T00:11:37.882Z,99476.64
2017-12-26T00:14:05.339Z,99482.58
2017-12-26T00:16:32.805Z,99479.78
2017-12-26T00:19:00.300Z,99485.72
2017-12-26T00:21:27.740Z,99482.90
2017-12-26T00:23:55.212Z,99490.86
2017-12-26T00:26:22.672Z,99481.58
2017-12-26T00:28:50.106Z,99476.11
2017-12-26T00:31:17.555Z,99479.72
2017-12-26T00:33:45.064Z,99473.42
2017-12-26T00:36:12.510Z,99470.53
2017-12-26T00:38:39.967Z,99466.35
2017-12-26T00:41:07.423Z,99468.49
2017-12-26T00:43:34.886Z,99459.18
2017-12-26T00:46:02.332Z,99448.72
2017-12-26T00:48:29.823Z,99443.34
2017-12-26T00:50:57.322Z,99446.69
2017-12-26T00:53:24.763Z,99447.05
2017-12-26T00:55:52.223Z,99436.96
2017-12-26T00:58:19.671Z,99439.48
2017-12-26T01:00:47.109Z,99439.05
2017-12-26T01:03:14.571Z,99437.39
2017-12-26T01:05:42.025Z,99438.20
2017-12-26T01:08:09.482Z,99439.11
2017-12-26T01:10:36.939Z,99438.71
2017-12-26T01:13:04.413Z,99436.53
2017-12-26T01:15:31.866Z,99438.98
2017-12-26T01:17:59.385Z,99431.05
2017-12-26T01:20:26.851Z,99427.71
2017-12-26T01:22:54.336Z,99427.73
2017-12-26T01:25:21.808Z,99420.91
2017-12-26T01:27:49.296Z,99433.99
2017-12-26T01:30:16.779Z,99439.38
2017-12-26T01:32:44.271Z,99443.52
2017-12-26T01:35:11.757Z,99436.39
2017-12-26T01:37:39.297Z,99426.75
2017-12-26T01:40:06.779Z,99429.61
2017-12-26T01:42:34.271Z,99424.59
2017-12-26T01:45:01.768Z,99420.41
2017-12-26T01:47:29.268Z,99409.06
2017-12-26T01:49:56.751Z,99412.13
2017-12-26T01:52:24.248Z,99412.47
2017-12-26T01:54:51.734Z,99410.73
2017-12-26T01:57:19.219Z,99398.48
2017-12-26T01:59:46.712Z,99400.66
2017-12-26T02:02:14.184Z,99394.25
2017-12-26T02:04:41.682Z,99387.87
2017-12-26T02:07:09.216Z,99385.80
2017-12-26T02:09:36.684Z,99387.93
2017-12-26T02:12:04.264Z,99383.69
2017-12-26T02:14:31.791Z,99382.85
2017-12-26T02:16:59.263Z,99381.61
2017-12-26T02:19:26.744Z,99375.60
2017-12-26T02:21:54.220Z,99378.15
2017-12-26T02:24:21.688Z,99374.38
2017-12-26T02:26:49.189Z,99372.24
2017-12-26T02:29:16.651Z,99365.97
2017-12-26T02:31:44.144Z,99369.34
2017-12-26T02:34:11.626Z,99371.02
2017-12-26T02:36:39.115Z,99360.65
2017-12-26T02:39:06.583Z,99361.35
2017-12-26T02:41:34.055Z,99357.17
2017-12-26T02:44:01.589Z,99364.78
2017-12-26T02:46:29.059Z,99355.88
2017-12-26T02:48:56.639Z,99350.08
2017-12-26T02:51:24.184Z,99342.02
2017-12-26T02:53:51.657Z,99336.11
2017-12-26T02:56:19.131Z,99337.00
2017-12-26T02:58:46.592Z,99328.45
2017-12-26T03:01:14.102Z,99326.31
2017-12-26T03:03:41.541Z,99325.83
2017-12-26T03:06:09.008Z,99323.80
2017-12-26T03:08:36.468Z,99325.11
2017-12-26T03:11:03.943Z,99326.27
2017-12-26T03:13:31.394Z,99321.63
2017-12-26T03:15:58.839Z,99317.48
2017-12-26T03:18:26.302Z,99315.00
2017-12-26T03:20:53.766Z,99312.84
2017-12-26T03:23:21.221Z,99314.09
2017-12-26T03:25:48.728Z,99309.81
2017-12-26T03:28:16.179Z,99315.61
2017-12-26T03:30:43.691Z,99307.16
2017-12-26T03:33:11.159Z,99308.88
2017-12-26T03:35:38.606Z,99303.37
2017-12-26T03:38:06.064Z,99306.78
2017-12-26T03:40:33.534Z,99304.18
2017-12-26T03:43:00.992Z,99309.59
2017-12-26T03:45:28.449Z,99297.89
2017-12-26T03:47:55.926Z,99289.84
2017-12-26T03:50:23.399Z,99280.59
2017-12-26T03:52:50.858Z,99288.17
2017-12-26T03:55:18.333Z,99290.19
2017-12-26T03:57:45.858Z,99280.92
2017-12-26T04:00:13.316Z,99280.09
2017-12-26T04:02:41.235Z,99287.75
2017-12-26T04:05:08.679Z,99281.94
2017-12-26T04:07:36.147Z,99282.66
2017-12-26T04:10:03.659Z,99277.68
2017-12-26T04:12:31.199Z,99280.19
2017-12-26T04:14:58.643Z,99278.84
2017-12-26T04:17:26.111Z,99280.54
2017-12-26T04:19:53.562Z,99280.69
2017-12-26T04:22:21.030Z,99281.13
2017-12-26T04:24:48.510Z,99284.07
2017-12-26T04:27:15.969Z,99278.66
2017-12-26T04:29:43.435Z,99278.72
2017-12-26T04:32:10.905Z,99274.89
2017-12-26T04:34:38.357Z,99264.70
2017-12-26T04:37:05.836Z,99260.86
2017-12-26T04:39:33.301Z,99267.17
2017-12-26T04:42:00.758Z,99265.91
2017-12-26T04:44:28.206Z,99268.91
2017-12-26T04:46:55.671Z,99268.89
2017-12-26T04:49:23.155Z,99265.11
2017-12-26T04:51:50.609Z,99262.55
2017-12-26T04:54:18.116Z,99259.22
2017-12-26T04:56:45.583Z,99259.69
2017-12-26T04:59:13.069Z,99255.91
2017-12-26T05:01:40.536Z,99250.84
2017-12-26T05:04:07.985Z,99253.81
2017-12-26T05:06:35.446Z,99248.04
2017-12-26T05:09:02.987Z,99244.23
2017-12-26T05:11:30.440Z,99243.19
2017-12-26T05:13:57.907Z,99243.60
2017-12-26T05:16:25.388Z,99238.53
2017-12-26T05:18:52.850Z,99233.05
2017-12-26T05:21:20.305Z,99230.19
2017-12-26T05:23:47.779Z,99225.23
2017-12-26T05:26:15.258Z,99223.61
2017-12-26T05:28:42.730Z,99233.30
2017-12-26T05:31:10.247Z,99226.64
2017-12-26T05:33:37.676Z,99221.91
2017-12-26T05:36:05.133Z,99222.78
2017-12-26T05:38:32.645Z,99218.53
2017-12-26T05:41:00.115Z,99224.11
2017-12-26T05:43:27.569Z,99216.03
2017-12-26T05:45:55.036Z,99216.86
2017-12-26T05:48:22.489Z,99217.30
2017-12-26T05:50:49.948Z,99213.47
2017-12-26T05:53:17.470Z,99217.72
2017-12-26T05:55:44.948Z,99216.11
2017-12-26T05:58:12.392Z,99212.86
2017-12-26T06:00:39.872Z,99208.94
2017-12-26T06:03:07.331Z,99199.63
2017-12-26T06:05:34.782Z,99190.32
2017-12-26T06:08:02.262Z,99194.92
2017-12-26T06:10:29.707Z,99200.87
2017-12-26T06:12:57.155Z,99200.03
2017-12-26T06:15:24.616Z,99200.87
2017-12-26T06:17:52.072Z,99199.15
2017-12-26T06:20:19.528Z,99200.83
2017-12-26T06:22:47.053Z,99195.70
2017-12-26T06:25:14.512Z,99194.92
2017-12-26T06:27:41.979Z,99191.08
2017-12-26T06:30:09.446Z,99186.84
2017-12-26T06:32:36.894Z,99187.22
2017-12-26T06:35:04.351Z,99185.08
2017-12-26T06:37:31.810Z,99189.73
2017-12-26T06:39:59.292Z,99193.94
2017-12-26T06:42:26.755Z,99198.25
2017-12-26T06:44:54.328Z,99202.84
2017-12-26T06:47:21.780Z,99201.47
2017-12-26T06:49:49.239Z,99193.89
2017-12-26T06:52:16.716Z,99196.79
2017-12-26T06:54:44.191Z,99192.11
2017-12-26T06:57:11.643Z,99196.33
2017-12-26T06:59:39.111Z,99187.55
2017-12-26T07:02:06.567Z,99180.78
2017-12-26T07:04:34.020Z,99180.77
2017-12-26T07:07:01.528Z,99178.65
2017-12-26T07:09:28.988Z,99186.24
2017-12-26T07:11:56.444Z,99188.81
2017-12-26T07:14:23.997Z,99191.77
2017-12-26T07:16:51.459Z,99198.07
2017-12-26T07:19:18.919Z,99191.67
2017-12-26T07:21:51.786Z,99188.41
2017-12-26T07:24:19.241Z,99198.89
2017-12-26T07:26:46.718Z,99200.64
2017-12-26T07:29:14.211Z,99195.58
2017-12-26T07:31:41.774Z,99196.49
2017-12-26T07:34:09.257Z,99200.66
2017-12-26T07:36:36.749Z,99192.28
2017-12-26T07:39:04.223Z,99200.28
2017-12-26T07:41:31.703Z,99193.59
2017-12-26T07:43:59.166Z,99189.09
2017-12-26T07:46:26.646Z,99191.20
2017-12-26T07:48:54.119Z,99192.97
2017-12-26T07:51:21.690Z,99193.41
2017-12-26T07:53:49.179Z,99188.27
2017-12-26T07:56:16.636Z,99189.45
2017-12-26T07:58:44.096Z,99189.81
2017-12-26T08:01:11.594Z,99181.40
2017-12-26T08:03:39.092Z,99179.77
2017-12-26T08:06:06.556Z,99176.51
2017-12-26T08:08:34.015Z,99182.41
2017-12-26T08:11:01.475Z,99179.09
2017-12-26T08:13:28.925Z,99180.33
2017-12-26T08:15:56.441Z,99176.99
2017-12-26T08:18:23.917Z,99177.84
2017-12-26T08:20:51.376Z,99183.38
2017-12-26T08:23:18.883Z,99190.12
2017-12-26T08:25:46.357Z,99189.27
2017-12-26T08:28:13.896Z,99193.48
2017-12-26T08:30:41.363Z,99187.91
2017-12-26T08:33:08.821Z,99183.82
2017-12-26T08:35:36.347Z,99187.11
2017-12-26T08:38:03.909Z,99183.34
2017-12-26T08:40:32.283Z,99179.09
2017-12-26T08:42:59.846Z,99183.78
2017-12-26T08:45:28.157Z,99191.36
2017-12-26T08:47:57.105Z,99187.11
2017-12-26T08:50:24.692Z,99180.34
2017-12-26T08:52:52.184Z,99176.23
2017-12-26T08:55:19.796Z,99177.46
2017-12-26T08:57:47.275Z,99176.63
2017-12-26T09:00:14.759Z,99169.91
2017-12-26T09:02:42.243Z,99173.73
2017-12-26T09:05:09.760Z,99171.64
2017-12-26T09:07:37.212Z,99181.77
2017-12-26T09:10:04.707Z,99185.19
2017-12-26T09:12:32.202Z,99183.01
2017-12-26T09:14:59.664Z,99180.94
2017-12-26T09:17:27.131Z,99185.15
2017-12-26T09:19:54.593Z,99183.95
2017-12-26T09:22:22.156Z,99190.67
2017-12-26T09:24:49.623Z,99187.34
2017-12-26T09:27:17.103Z,99185.25
2017-12-26T09:29:44.569Z,99178.48
2017-12-26T09:32:12.036Z,99173.08
2017-12-26T09:34:39.507Z,99177.37
2017-12-26T09:37:06.983Z,99160.09
2017-12-26T09:39:34.447Z,99164.30
2017-12-26T09:42:01.902Z,99161.77
2017-12-26T09:44:29.392Z,99160.95
2017-12-26T09:46:56.864Z,99159.73
2017-12-26T09:49:24.342Z,99157.61
2017-12-26T09:51:51.895Z,99153.80
2017-12-26T09:54:19.444Z,99147.91
2017-12-26T09:56:46.925Z,99137.89
2017-12-26T09:59:14.402Z,99133.28
2017-12-26T10:01:41.974Z,99134.55
2017-12-26T10:04:09.450Z,99133.66
2017-12-26T10:06:36.935Z,99132.84
2017-12-26T10:09:04.469Z,99127.40
2017-12-26T10:11:31.976Z,99125.31
2017-12-26T10:13:59.792Z,99117.67
2017-12-26T10:16:28.167Z,99124.89
2017-12-26T10:18:55.631Z,99114.39
2017-12-26T10:21:23.129Z,99108.48
2017-12-26T10:23:50.734Z,99103.81
2017-12-26T10:26:18.221Z,99109.69
2017-12-26T10:28:45.752Z,99104.60
2017-12-26T10:31:13.372Z,99099.98
2017-12-26T10:33:40.862Z,99094.48
2017-12-26T10:36:08.438Z,99089.03
2017-12-26T10:38:36.002Z,99093.25
2017-12-26T10:41:03.475Z,99093.27
2017-12-26T10:43:30.942Z,99079.33
2017-12-26T10:45:58.456Z,99080.19
2017-12-26T10:48:25.928Z,99078.89
2017-12-26T10:50:53.464Z,99073.41
2017-12-26T10:53:21.042Z,99067.94
2017-12-26T10:55:48.514Z,99068.80
2017-12-26T10:58:16.024Z,99058.24
2017-12-26T11:00:43.500Z,99062.87
2017-12-26T11:03:10.984Z,99058.66
2017-12-26T11:05:38.435Z,99065.01
2017-12-26T11:08:05.904Z,99061.23
2017-12-26T11:10:33.420Z,99054.50
2017-12-26T11:13:01.137Z,99056.59
2017-12-26T11:15:28.628Z,99057.89
2017-12-26T11:17:56.173Z,99047.34
2017-12-26T11:20:23.632Z,99049.05
2017-12-26T11:22:51.093Z,99050.73
2017-12-26T11:25:18.551Z,99047.38
2017-12-26T11:27:46.004Z,99039.75
2017-12-26T11:30:13.544Z,99040.63
2017-12-26T11:32:41.000Z,99038.92
2017-12-26T11:35:08.484Z,99038.08
2017-12-26T11:37:35.956Z,99037.66
2017-12-26T11:40:03.431Z,99035.97
2017-12-26T11:42:30.923Z,99035.53
2017-12-26T11:44:58.389Z,99030.89
2017-12-26T11:47:26.720Z,99025.37
2017-12-26T11:49:59.069Z,99028.33
2017-12-26T11:52:28.468Z,99025.38
2017-12-26T11:54:56.455Z,99014.39
2017-12-26T11:57:24.052Z,99024.11
2017-12-26T11:59:51.560Z,99016.93
2017-12-26T12:02:19.045Z,99012.28
2017-12-26T12:04:46.512Z,99012.71
2017-12-26T12:07:14.000Z,99016.52
2017-12-26T12:09:41.468Z,99016.94
2017-12-26T12:12:08.928Z,99014.41
2017-12-26T12:14:36.401Z,99011.44
2017-12-26T12:17:03.880Z,99003.81
2017-12-26T12:19:31.356Z,99007.61
2017-12-26T12:21:58.819Z,99005.92
2017-12-26T12:24:26.782Z,99008.45
2017-12-26T12:26:54.234Z,98997.88
2017-12-26T12:29:21.736Z,98987.29
2017-12-26T12:31:55.151Z,98987.71
2017-12-26T12:34:22.625Z,98977.55
2017-12-26T12:36:50.081Z,98976.67
2017-12-26T12:39:17.568Z,98978.36
2017-12-26T12:41:45.097Z,98967.38
2017-12-26T12:44:12.560Z,98969.51
2017-12-26T12:46:40.028Z,98973.73
2017-12-26T12:49:07.508Z,98966.98
2017-12-26T12:51:34.972Z,98962.36
2017-12-26T12:54:02.438Z,98964.09
2017-12-26T12:56:30.135Z,98963.69
2017-12-26T12:58:57.603Z,98963.67
2017-12-26T13:01:25.073Z,98954.39
2017-12-26T13:03:52.539Z,98956.89
2017-12-26T13:06:20.029Z,98963.63
2017-12-26T13:08:47.511Z,98961.92
2017-12-26T13:11:14.960Z,98962.73
2017-12-26T13:13:42.427Z,98964.84
2017-12-26T13:16:09.884Z,98959.41
2017-12-26T13:18:37.776Z,98956.52
2017-12-26T13:21:05.244Z,98954.80
2017-12-26T13:23:32.707Z,98950.57
2017-12-26T13:26:00.229Z,98949.30
2017-12-26T13:28:28.081Z,98948.47
2017-12-26T13:30:55.575Z,98945.94
2017-12-26T13:33:23.078Z,98952.66
2017-12-26T13:35:50.637Z,98945.12
2017-12-26T13:38:18.193Z,98956.56
2017-12-26T13:40:45.677Z,98955.73
2017-12-26T13:43:13.165Z,98953.61
2017-12-26T13:45:40.629Z,98961.21
2017-12-26T13:48:08.202Z,98958.66
2017-12-26T13:50:35.849Z,98947.69
2017-12-26T13:53:03.510Z,98954.88
2017-12-26T13:55:30.989Z,98947.72
2017-12-26T13:57:58.458Z,98946.05
2017-12-26T14:00:27.291Z,98940.16
2017-12-26T14:02:54.896Z,98940.13
2017-12-26T14:05:22.701Z,98938.03
2017-12-26T14:07:52.465Z,98940.98
2017-12-26T14:10:20.180Z,98946.91
2017-12-26T14:12:47.695Z,98944.36
2017-12-26T14:15:15.399Z,98949.00
2017-12-26T14:17:42.860Z,98943.53
2017-12-26T14:20:10.340Z,98938.47
2017-12-26T14:22:37.914Z,98935.08
2017-12-26T14:25:07.077Z,98933.41
2017-12-26T14:27:34.608Z,98936.77
2017-12-26T14:30:02.169Z,98932.97
2017-12-26T14:32:29.737Z,98932.53
2017-12-26T14:34:57.616Z,98933.37
2017-12-26T14:37:25.134Z,98920.31
2017-12-26T14:39:53.014Z,98921.14
2017-12-26T14:42:20.581Z,98918.20
2017-12-26T14:44:48.096Z,98916.47
2017-12-26T14:47:16.133Z,98916.89
2017-12-26T14:49:43.668Z,98921.53
2017-12-26T14:52:11.160Z,98922.78
2017-12-26T14:54:38.627Z,98924.94
2017-12-26T14:57:06.100Z,98934.61
2017-12-26T14:59:33.610Z,98932.08
2017-12-26T15:02:01.073Z,98920.25
2017-12-26T15:04:28.549Z,98909.28
2017-12-26T15:06:57.542Z,98913.91
2017-12-26T15:09:25.210Z,98918.53
2017-12-26T15:11:53.060Z,98912.60
2017-12-26T15:14:20.612Z,98900.39
2017-12-26T15:16:48.093Z,98898.69
2017-12-26T15:19:15.578Z,98895.30
2017-12-26T15:21:43.150Z,98896.97
2017-12-26T15:24:10.615Z,98894.83
2017-12-26T15:26:38.291Z,98895.23
2017-12-26T15:29:05.869Z,98896.48
2017-12-26T15:31:33.420Z,98893.10
2017-12-26T15:34:00.873Z,98897.71
2017-12-26T15:36:28.601Z,98893.94
2017-12-26T15:38:56.098Z,98891.00
2017-12-26T15:41:23.585Z,98891.84
2017-12-26T15:43:51.134Z,98893.54
2017-12-26T15:46:18.968Z,98896.91
2017-12-26T15:48:46.497Z,98904.94
2017-12-26T15:51:14.135Z,98914.20
2017-12-26T15:53:43.069Z,98902.87
2017-12-26T15:56:10.569Z,98886.02
2017-12-26T15:58:43.889Z,98886.02
2017-12-26T16:01:11.386Z,98878.89
2017-12-26T16:03:38.871Z,98875.93
2017-12-26T16:06:06.419Z,98883.95
2017-12-26T16:08:34.210Z,98871.29
2017-12-26T16:11:01.695Z,98867.89
2017-12-26T16:13:29.212Z,98864.55
2017-12-26T16:15:56.724Z,98862.84
2017-12-26T16:18:24.209Z,98856.52
2017-12-26T16:20:51.751Z,98854.84
2017-12-26T16:23:19.241Z,98858.20
2017-12-26T16:25:46.696Z,98868.30
2017-12-26T16:28:15.475Z,98882.20
2017-12-26T16:30:42.979Z,98884.33
2017-12-26T16:33:10.452Z,98888.92
2017-12-26T16:35:37.948Z,98886.83
2017-12-26T16:38:05.444Z,98891.84
2017-12-26T16:40:33.035Z,98889.75
2017-12-26T16:43:00.541Z,98892.27
2017-12-26T16:45:28.024Z,98896.05
2017-12-26T16:47:55.636Z,98898.11
2017-12-26T16:50:23.396Z,98896.41
2017-12-26T16:52:50.865Z,98903.58
2017-12-26T16:55:18.340Z,98905.67
2017-12-26T16:57:45.837Z,98902.73
2017-12-26T17:00:13.304Z,98903.17
2017-12-26T17:02:40.922Z,98910.31
2017-12-26T17:05:08.510Z,98914.95
2017-12-26T17:07:35.977Z,98923.41
2017-12-26T17:10:03.554Z,98933.87
2017-12-26T17:12:31.300Z,98924.56
2017-12-26T17:14:58.797Z,98913.20
2017-12-26T17:17:26.266Z,98913.61
2017-12-26T17:19:53.784Z,98924.55
2017-12-26T17:22:22.374Z,98926.67
2017-12-26T17:24:50.889Z,98919.48
2017-12-26T17:27:18.703Z,98914.02
2017-12-26T17:29:46.206Z,98907.33
2017-12-26T17:32:13.673Z,98910.30
2017-12-26T17:34:41.148Z,98909.08
2017-12-26T17:37:08.648Z,98907.38
2017-12-26T17:39:36.907Z,98913.28
2017-12-26T17:42:05.633Z,98908.24
2017-12-26T17:44:33.333Z,98910.31
2017-12-26T17:47:00.844Z,98921.75
2017-12-26T17:49:29.187Z,98923.02
2017-12-26T17:51:56.854Z,98918.42
2017-12-26T17:54:24.408Z,98917.14
2017-12-26T17:56:52.041Z,98914.59
2017-12-26T17:59:19.514Z,98911.67
2017-12-26T18:01:46.969Z,98901.16
2017-12-26T18:04:14.536Z,98897.75
2017-12-26T18:06:41.987Z,98910.78
2017-12-26T18:09:09.498Z,98916.27
2017-12-26T18:11:36.986Z,98920.48
2017-12-26T18:14:04.472Z,98906.97
2017-12-26T18:16:32.329Z,98907.04
2017-12-26T18:18:59.870Z,98912.47
2017-12-26T18:21:27.333Z,98906.93
2017-12-26T18:23:54.802Z,98912.77
2017-12-26T18:26:22.303Z,98901.88
2017-12-26T18:31:17.156Z,98892.17
2017-12-26T18:33:44.647Z,98883.34
2017-12-26T18:36:12.122Z,98888.35
2017-12-26T18:38:39.957Z,98890.41
2017-12-26T18:41:07.458Z,98893.81
2017-12-26T18:43:34.922Z,98894.28
2017-12-26T18:46:02.415Z,98890.86
2017-12-26T18:48:30.258Z,98890.88
2017-12-26T18:50:57.761Z,98911.92
2017-12-26T18:53:25.220Z,98916.16
2017-12-26T18:55:52.703Z,98904.77
2017-12-26T18:58:20.162Z,98903.95
2017-12-26T19:00:47.642Z,98903.89
2017-12-26T19:03:15.108Z,98903.45
2017-12-26T19:05:42.593Z,98895.95
2017-12-26T19:08:10.175Z,98899.66
2017-12-26T19:10:37.659Z,98894.20
2017-12-26T19:13:05.117Z,98898.38
2017-12-26T19:15:32.643Z,98892.44
2017-12-26T19:18:00.225Z,98884.50
2017-12-26T19:20:27.737Z,98887.44
2017-12-26T19:22:55.198Z,98883.61
2017-12-26T19:25:22.742Z,98889.50
2017-12-26T19:27:50.192Z,98891.67
2017-12-26T19:30:17.692Z,98895.84
2017-12-26T19:32:45.211Z,98882.84
2017-12-26T19:35:12.716Z,98879.48
2017-12-26T19:37:40.200Z,98879.06
2017-12-26T19:40:07.739Z,98876.58
2017-12-26T19:42:35.225Z,98874.43
2017-12-26T19:45:02.692Z,98880.28
2017-12-26T19:47:30.159Z,98871.06
2017-12-26T19:49:57.692Z,98868.11
2017-12-26T19:52:25.204Z,98858.02
2017-12-26T19:54:52.690Z,98865.58
2017-12-26T19:57:20.184Z,98858.81
2017-12-26T19:59:47.660Z,98852.51
2017-12-26T20:02:15.357Z,98853.78
2017-12-26T20:04:42.843Z,98851.68
2017-12-26T20:07:10.307Z,98843.25
2017-12-26T20:09:37.835Z,98854.58
2017-12-26T20:12:05.426Z,98842.31
2017-12-26T20:14:33.157Z,98850.33
2017-12-26T20:17:00.677Z,98847.86
2017-12-26T20:19:28.137Z,98840.73
2017-12-26T20:21:55.771Z,98838.23
2017-12-26T20:24:23.284Z,98842.02
2017-12-26T20:26:50.743Z,98834.86
2017-12-26T20:29:20.144Z,98828.13
2017-12-26T20:31:47.650Z,98835.25
2017-12-26T20:34:15.338Z,98842.80
2017-12-26T20:36:42.852Z,98825.98
2017-12-26T20:39:10.344Z,98815.05
2017-12-26T20:41:37.823Z,98817.58
2017-12-26T20:44:05.305Z,98815.42
2017-12-26T20:46:33.283Z,98818.38
2017-12-26T20:49:00.816Z,98813.72
2017-12-26T20:51:28.773Z,98821.63
2017-12-26T20:53:56.524Z,98815.31
2017-12-26T20:56:24.607Z,98813.26
2017-12-26T20:58:53.180Z,98809.42
2017-12-26T21:01:20.819Z,98816.20
2017-12-26T21:03:48.309Z,98813.22
2017-12-26T21:06:15.793Z,98810.70
2017-12-26T21:08:43.321Z,98809.01
2017-12-26T21:11:10.780Z,98803.94
2017-12-26T21:13:38.255Z,98800.11
2017-12-26T21:16:05.776Z,98797.58
2017-12-26T21:18:33.244Z,98801.38
2017-12-26T21:21:00.736Z,98805.19
2017-12-26T21:23:28.259Z,98798.87
2017-12-26T21:25:55.756Z,98798.81
2017-12-26T21:28:23.267Z,98790.44
2017-12-26T21:30:50.733Z,98791.67
2017-12-26T21:33:18.994Z,98781.95
2017-12-26T21:35:46.464Z,98789.94
2017-12-26T21:38:14.290Z,98787.88
2017-12-26T21:40:41.787Z,98792.93
2017-12-26T21:43:09.284Z,98781.20
2017-12-26T21:45:36.899Z,98777.41
2017-12-26T21:48:04.366Z,98773.59
2017-12-26T21:50:31.892Z,98776.94
2017-12-26T21:52:59.370Z,98776.55
2017-12-26T21:55:26.844Z,98773.63
2017-12-26T21:57:54.321Z,98769.83
2017-12-26T22:00:21.831Z,98768.16
2017-12-26T22:02:49.291Z,98766.44
2017-12-26T22:05:16.757Z,98764.30
2017-12-26T22:07:44.237Z,98760.08
2017-12-26T22:10:11.708Z,98752.56
2017-12-26T22:12:39.211Z,98751.28
2017-12-26T22:15:06.695Z,98759.25
2017-12-26T22:17:34.159Z,98761.78
2017-12-26T22:20:01.615Z,98760.95
2017-12-26T22:22:29.133Z,98753.39
2017-12-26T22:24:56.603Z,98759.28
2017-12-26T22:27:24.468Z,98750.06
2017-12-26T22:29:51.964Z,98744.59
2017-12-26T22:32:19.517Z,98739.58
2017-12-26T22:34:46.981Z,98742.50
2017-12-26T22:37:14.552Z,98743.34
2017-12-26T22:39:42.024Z,98732.84
2017-12-26T22:42:09.541Z,98730.77
2017-12-26T22:44:38.041Z,98729.47
2017-12-26T22:47:05.679Z,98722.75
2017-12-26T22:49:33.128Z,98714.73
2017-12-26T22:52:00.630Z,98711.84
2017-12-26T22:54:28.221Z,98705.15
2017-12-26T22:56:55.695Z,98690.81
2017-12-26T22:59:23.223Z,98691.22
2017-12-26T23:01:50.690Z,98691.64
2017-12-26T23:04:18.230Z,98686.58
2017-12-26T23:06:45.766Z,98678.20
2017-12-26T23:09:13.248Z,98668.96
2017-12-26T23:11:40.724Z,98666.41
2017-12-26T23:14:14.799Z,98655.42
2017-12-26T23:16:47.740Z,98650.84
2017-12-26T23:19:15.221Z,98655.05
2017-12-26T23:21:42.693Z,98642.85
2017-12-26T23:24:15.791Z,98645.78
2017-12-26T23:26:48.715Z,98640.70
2017-12-26T23:29:21.733Z,98629.77
2017-12-26T23:31:54.765Z,98622.22
2017-12-26T23:34:27.731Z,98618.86
2017-12-26T23:37:00.798Z,98612.98
2017-12-26T23:39:33.833Z,98596.98
2017-12-26T23:42:06.868Z,98580.59
2017-12-26T23:44:40.142Z,98580.59
